Line Lexington, Pennsylvania
Current Conditions -  °F | °C
As of 11:54 AM on Friday 19 Dec 2014 (Local Time) from KDYL Reporting Station
Overcast Overcast  
Wind Chill: 28°   Ceiling: 3200
Heat Index: 36°   Visibility: 10mi
Dew Point: 24°   Wind: 12mph
Humidity: 62%   Direction: 320°NW
Pressure: 30.05"   Gusts: 21mph
Location:  40.29°N, 75.26°W
Report Text: KDYL 191654Z AUTO 32010G18KT 10SM OVC032 02/M04 A3005 RMK AO2 SLP183 T00221044
Loading
Personal Weather Stations






























Interactive Weather Map New forecast layout! Learn more

10-Day Weather Forecast

Advertisements
Track Severe Weather on mobile